sensor_id;sensor_type;location;lat;lon;timestamp;temperature;humidity
4647;DHT22;2336;47.822;7.564;2023-04-03T00:01:52;6.00;99.90
4647;DHT22;2336;47.822;7.564;2023-04-03T00:04:18;5.90;99.90
4647;DHT22;2336;47.822;7.564;2023-04-03T00:06:45;5.90;99.90
4647;DHT22;2336;47.822;7.564;2023-04-03T00:09:13;5.90;99.90
4647;DHT22;2336;47.822;7.564;2023-04-03T00:11:40;5.80;99.90
4647;DHT22;2336;47.822;7.564;2023-04-03T00:14:07;5.90;99.90
4647;DHT22;2336;47.822;7.564;2023-04-03T00:16:33;5.80;99.90
4647;DHT22;2336;47.822;7.564;2023-04-03T00:19:00;5.80;99.90
4647;DHT22;2336;47.822;7.564;2023-04-03T00:21:27;5.80;99.90
4647;DHT22;2336;47.822;7.564;2023-04-03T00:23:53;5.80;99.90
4647;DHT22;2336;47.822;7.564;2023-04-03T00:26:21;5.80;99.90
4647;DHT22;2336;47.822;7.564;2023-04-03T00:28:48;5.80;99.90
4647;DHT22;2336;47.822;7.564;2023-04-03T00:31:15;5.80;99.90
4647;DHT22;2336;47.822;7.564;2023-04-03T00:33:42;5.80;99.90
4647;DHT22;2336;47.822;7.564;2023-04-03T00:36:10;5.70;99.90
4647;DHT22;2336;47.822;7.564;2023-04-03T00:38:36;5.70;99.90
4647;DHT22;2336;47.822;7.564;2023-04-03T00:41:03;5.60;99.90
4647;DHT22;2336;47.822;7.564;2023-04-03T00:43:32;5.60;99.90
4647;DHT22;2336;47.822;7.564;2023-04-03T00:45:59;5.50;99.90
4647;DHT22;2336;47.822;7.564;2023-04-03T00:48:29;5.50;99.90
4647;DHT22;2336;47.822;7.564;2023-04-03T00:50:57;5.50;99.90
4647;DHT22;2336;47.822;7.564;2023-04-03T00:53:27;5.50;99.90
4647;DHT22;2336;47.822;7.564;2023-04-03T00:55:57;5.40;99.90
4647;DHT22;2336;47.822;7.564;2023-04-03T00:58:28;5.40;99.90
4647;DHT22;2336;47.822;7.564;2023-04-03T01:01:03;5.30;99.90
4647;DHT22;2336;47.822;7.564;2023-04-03T01:03:31;5.30;99.90
4647;DHT22;2336;47.822;7.564;2023-04-03T01:05:58;5.40;99.90
4647;DHT22;2336;47.822;7.564;2023-04-03T01:08:25;5.40;99.90
4647;DHT22;2336;47.822;7.564;2023-04-03T01:10:51;5.40;99.90
4647;DHT22;2336;47.822;7.564;2023-04-03T01:13:21;5.30;99.90
4647;DHT22;2336;47.822;7.564;2023-04-03T01:15:48;5.30;99.90
4647;DHT22;2336;47.822;7.564;2023-04-03T01:18:16;5.20;99.90
4647;DHT22;2336;47.822;7.564;2023-04-03T01:23:52;5.20;99.90
4647;DHT22;2336;47.822;7.564;2023-04-03T01:26:21;5.20;99.90
4647;DHT22;2336;47.822;7.564;2023-04-03T01:28:48;5.20;99.90
4647;DHT22;2336;47.822;7.564;2023-04-03T01:31:20;5.10;99.90
4647;DHT22;2336;47.822;7.564;2023-04-03T01:33:50;5.10;99.90
4647;DHT22;2336;47.822;7.564;2023-04-03T01:36:18;5.10;99.90
4647;DHT22;2336;47.822;7.564;2023-04-03T01:38:46;5.10;99.90
4647;DHT22;2336;47.822;7.564;2023-04-03T01:41:12;5.00;99.90
4647;DHT22;2336;47.822;7.564;2023-04-03T01:43:39;5.00;99.90
4647;DHT22;2336;47.822;7.564;2023-04-03T01:46:06;5.10;99.90
4647;DHT22;2336;47.822;7.564;2023-04-03T01:48:33;5.10;99.90
4647;DHT22;2336;47.822;7.564;2023-04-03T01:51:01;5.00;99.90
4647;DHT22;2336;47.822;7.564;2023-04-03T01:53:29;5.10;99.90
4647;DHT22;2336;47.822;7.564;2023-04-03T01:55:55;5.10;99.90
4647;DHT22;2336;47.822;7.564;2023-04-03T01:58:22;5.00;99.90
4647;DHT22;2336;47.822;7.564;2023-04-03T02:00:49;5.00;99.90
4647;DHT22;2336;47.822;7.564;2023-04-03T02:03:15;5.00;99.90
4647;DHT22;2336;47.822;7.564;2023-04-03T02:05:42;5.00;99.90
4647;DHT22;2336;47.822;7.564;2023-04-03T02:08:10;5.00;99.90
4647;DHT22;2336;47.822;7.564;2023-04-03T02:10:37;5.00;99.90
4647;DHT22;2336;47.822;7.564;2023-04-03T02:13:04;5.00;99.90
4647;DHT22;2336;47.822;7.564;2023-04-03T02:15:30;5.00;99.90
4647;DHT22;2336;47.822;7.564;2023-04-03T02:17:57;5.00;99.90
4647;DHT22;2336;47.822;7.564;2023-04-03T02:20:24;5.00;99.90
4647;DHT22;2336;47.822;7.564;2023-04-03T02:22:50;5.00;99.90
4647;DHT22;2336;47.822;7.564;2023-04-03T02:25:18;5.00;99.90
4647;DHT22;2336;47.822;7.564;2023-04-03T02:27:45;5.00;99.90
4647;DHT22;2336;47.822;7.564;2023-04-03T02:30:12;5.00;99.90
4647;DHT22;2336;47.822;7.564;2023-04-03T02:32:40;4.90;99.90
4647;DHT22;2336;47.822;7.564;2023-04-03T02:35:08;5.00;99.90
4647;DHT22;2336;47.822;7.564;2023-04-03T02:37:34;5.00;99.90
4647;DHT22;2336;47.822;7.564;2023-04-03T02:40:01;5.00;99.90
4647;DHT22;2336;47.822;7.564;2023-04-03T02:42:30;5.00;99.90
4647;DHT22;2336;47.822;7.564;2023-04-03T02:44:57;4.90;99.90
4647;DHT22;2336;47.822;7.564;2023-04-03T02:47:25;4.90;99.90
4647;DHT22;2336;47.822;7.564;2023-04-03T02:49:52;4.90;99.90
4647;DHT22;2336;47.822;7.564;2023-04-03T02:52:19;4.90;99.90
4647;DHT22;2336;47.822;7.564;2023-04-03T02:54:45;4.90;99.90
4647;DHT22;2336;47.822;7.564;2023-04-03T02:57:12;4.90;99.90
4647;DHT22;2336;47.822;7.564;2023-04-03T02:59:40;4.80;99.90
4647;DHT22;2336;47.822;7.564;2023-04-03T03:02:07;4.70;99.90
4647;DHT22;2336;47.822;7.564;2023-04-03T03:04:34;4.60;99.90
4647;DHT22;2336;47.822;7.564;2023-04-03T03:07:01;4.70;99.90
4647;DHT22;2336;47.822;7.564;2023-04-03T03:09:27;4.60;99.90
4647;DHT22;2336;47.822;7.564;2023-04-03T03:11:54;4.60;99.90
4647;DHT22;2336;47.822;7.564;2023-04-03T03:14:21;4.50;99.90
4647;DHT22;2336;47.822;7.564;2023-04-03T03:16:49;4.50;99.90
4647;DHT22;2336;47.822;7.564;2023-04-03T03:19:16;4.50;99.90
4647;DHT22;2336;47.822;7.564;2023-04-03T03:21:43;4.50;99.90
4647;DHT22;2336;47.822;7.564;2023-04-03T03:24:10;4.60;99.90
4647;DHT22;2336;47.822;7.564;2023-04-03T03:26:37;4.60;99.90
4647;DHT22;2336;47.822;7.564;2023-04-03T03:29:04;4.50;99.90
4647;DHT22;2336;47.822;7.564;2023-04-03T03:31:30;4.50;99.90
4647;DHT22;2336;47.822;7.564;2023-04-03T03:33:58;4.50;99.90
4647;DHT22;2336;47.822;7.564;2023-04-03T03:36:25;4.50;99.90
4647;DHT22;2336;47.822;7.564;2023-04-03T03:38:52;4.60;99.90
4647;DHT22;2336;47.822;7.564;2023-04-03T03:41:19;4.50;99.90
4647;DHT22;2336;47.822;7.564;2023-04-03T03:43:46;4.50;99.90
4647;DHT22;2336;47.822;7.564;2023-04-03T03:46:12;4.50;99.90
4647;DHT22;2336;47.822;7.564;2023-04-03T03:48:39;4.50;99.90
4647;DHT22;2336;47.822;7.564;2023-04-03T03:51:07;4.50;99.90
4647;DHT22;2336;47.822;7.564;2023-04-03T03:53:34;4.50;99.90
4647;DHT22;2336;47.822;7.564;2023-04-03T03:56:00;4.60;99.90
4647;DHT22;2336;47.822;7.564;2023-04-03T03:58:27;4.50;99.90
4647;DHT22;2336;47.822;7.564;2023-04-03T04:00:54;4.50;99.90
4647;DHT22;2336;47.822;7.564;2023-04-03T04:03:21;4.60;99.90
4647;DHT22;2336;47.822;7.564;2023-04-03T04:05:47;4.60;99.90
4647;DHT22;2336;47.822;7.564;2023-04-03T04:08:15;4.60;99.90
4647;DHT22;2336;47.822;7.564;2023-04-03T04:10:42;4.60;99.90
4647;DHT22;2336;47.822;7.564;2023-04-03T04:13:09;4.60;99.90
4647;DHT22;2336;47.822;7.564;2023-04-03T04:15:35;4.60;99.90
4647;DHT22;2336;47.822;7.564;2023-04-03T04:18:02;4.60;99.90
4647;DHT22;2336;47.822;7.564;2023-04-03T04:20:29;4.60;99.90
4647;DHT22;2336;47.822;7.564;2023-04-03T04:22:55;4.60;99.90
4647;DHT22;2336;47.822;7.564;2023-04-03T04:25:23;4.60;99.90
4647;DHT22;2336;47.822;7.564;2023-04-03T04:27:51;4.70;99.90
4647;DHT22;2336;47.822;7.564;2023-04-03T04:30:18;4.60;99.90
4647;DHT22;2336;47.822;7.564;2023-04-03T04:32:44;4.60;99.90
4647;DHT22;2336;47.822;7.564;2023-04-03T04:35:11;4.70;99.90
4647;DHT22;2336;47.822;7.564;2023-04-03T04:37:38;4.60;99.90
4647;DHT22;2336;47.822;7.564;2023-04-03T04:40:05;4.60;99.90
4647;DHT22;2336;47.822;7.564;2023-04-03T04:42:34;4.50;99.90
4647;DHT22;2336;47.822;7.564;2023-04-03T04:45:00;4.50;99.90
4647;DHT22;2336;47.822;7.564;2023-04-03T04:47:28;4.60;99.90
4647;DHT22;2336;47.822;7.564;2023-04-03T04:49:55;4.50;99.90
4647;DHT22;2336;47.822;7.564;2023-04-03T04:52:22;4.40;99.90
4647;DHT22;2336;47.822;7.564;2023-04-03T04:54:48;4.50;99.90
4647;DHT22;2336;47.822;7.564;2023-04-03T04:57:15;4.50;99.90
4647;DHT22;2336;47.822;7.564;2023-04-03T04:59:44;4.50;99.90
4647;DHT22;2336;47.822;7.564;2023-04-03T05:02:10;4.50;99.90
4647;DHT22;2336;47.822;7.564;2023-04-03T05:04:37;4.50;99.90
4647;DHT22;2336;47.822;7.564;2023-04-03T05:07:04;4.50;99.90
4647;DHT22;2336;47.822;7.564;2023-04-03T05:09:30;4.50;99.90
4647;DHT22;2336;47.822;7.564;2023-04-03T05:11:57;4.60;99.90
4647;DHT22;2336;47.822;7.564;2023-04-03T05:14:24;4.50;99.90
4647;DHT22;2336;47.822;7.564;2023-04-03T05:16:52;4.40;99.90
4647;DHT22;2336;47.822;7.564;2023-04-03T05:19:19;4.50;99.90
4647;DHT22;2336;47.822;7.564;2023-04-03T05:21:46;4.40;99.90
4647;DHT22;2336;47.822;7.564;2023-04-03T05:24:13;4.40;99.90
4647;DHT22;2336;47.822;7.564;2023-04-03T05:26:41;4.30;99.90
4647;DHT22;2336;47.822;7.564;2023-04-03T05:29:07;4.30;99.90
4647;DHT22;2336;47.822;7.564;2023-04-03T05:31:34;4.20;99.90
4647;DHT22;2336;47.822;7.564;2023-04-03T05:34:02;4.30;99.90
4647;DHT22;2336;47.822;7.564;2023-04-03T05:36:29;4.30;99.90
4647;DHT22;2336;47.822;7.564;2023-04-03T05:38:56;4.30;99.90
4647;DHT22;2336;47.822;7.564;2023-04-03T05:41:23;4.20;99.90
4647;DHT22;2336;47.822;7.564;2023-04-03T05:43:50;4.20;99.90
4647;DHT22;2336;47.822;7.564;2023-04-03T05:46:18;4.10;99.90
4647;DHT22;2336;47.822;7.564;2023-04-03T05:48:45;4.10;99.90
4647;DHT22;2336;47.822;7.564;2023-04-03T05:51:16;4.10;99.90
4647;DHT22;2336;47.822;7.564;2023-04-03T05:53:43;4.10;99.90
4647;DHT22;2336;47.822;7.564;2023-04-03T05:56:11;4.10;99.90
4647;DHT22;2336;47.822;7.564;2023-04-03T05:58:38;4.10;99.90
4647;DHT22;2336;47.822;7.564;2023-04-03T06:01:04;4.10;99.90
4647;DHT22;2336;47.822;7.564;2023-04-03T06:03:31;4.10;99.90
4647;DHT22;2336;47.822;7.564;2023-04-03T06:05:58;4.10;99.90
4647;DHT22;2336;47.822;7.564;2023-04-03T06:08:27;4.20;99.90
4647;DHT22;2336;47.822;7.564;2023-04-03T06:10:53;4.20;99.90
4647;DHT22;2336;47.822;7.564;2023-04-03T06:13:20;4.20;99.90
4647;DHT22;2336;47.822;7.564;2023-04-03T06:15:47;4.20;99.90
4647;DHT22;2336;47.822;7.564;2023-04-03T06:18:14;4.30;99.90
4647;DHT22;2336;47.822;7.564;2023-04-03T06:20:41;4.30;99.90
4647;DHT22;2336;47.822;7.564;2023-04-03T06:23:08;4.30;99.90
4647;DHT22;2336;47.822;7.564;2023-04-03T06:25:37;4.30;99.90
4647;DHT22;2336;47.822;7.564;2023-04-03T06:28:03;4.30;99.90
4647;DHT22;2336;47.822;7.564;2023-04-03T06:30:31;4.40;99.90
4647;DHT22;2336;47.822;7.564;2023-04-03T06:32:57;4.40;99.90
4647;DHT22;2336;47.822;7.564;2023-04-03T06:35:24;4.30;99.90
4647;DHT22;2336;47.822;7.564;2023-04-03T06:37:51;4.40;99.90
4647;DHT22;2336;47.822;7.564;2023-04-03T06:40:21;4.50;99.90
4647;DHT22;2336;47.822;7.564;2023-04-03T06:42:50;4.50;99.90
4647;DHT22;2336;47.822;7.564;2023-04-03T06:45:17;4.40;99.90
4647;DHT22;2336;47.822;7.564;2023-04-03T06:47:43;4.50;99.90
4647;DHT22;2336;47.822;7.564;2023-04-03T06:50:11;4.50;99.90
4647;DHT22;2336;47.822;7.564;2023-04-03T06:52:40;4.50;99.90
4647;DHT22;2336;47.822;7.564;2023-04-03T06:55:07;4.50;99.90
4647;DHT22;2336;47.822;7.564;2023-04-03T06:57:34;4.50;99.90
4647;DHT22;2336;47.822;7.564;2023-04-03T07:00:03;4.60;99.90
4647;DHT22;2336;47.822;7.564;2023-04-03T07:02:31;4.60;99.90
4647;DHT22;2336;47.822;7.564;2023-04-03T07:04:57;4.60;99.90
4647;DHT22;2336;47.822;7.564;2023-04-03T07:07:24;4.60;99.90
4647;DHT22;2336;47.822;7.564;2023-04-03T07:09:51;4.70;99.90
4647;DHT22;2336;47.822;7.564;2023-04-03T07:12:17;4.70;99.90
4647;DHT22;2336;47.822;7.564;2023-04-03T07:14:44;4.70;99.90
4647;DHT22;2336;47.822;7.564;2023-04-03T07:17:12;4.70;99.90
4647;DHT22;2336;47.822;7.564;2023-04-03T07:19:39;4.80;99.90
4647;DHT22;2336;47.822;7.564;2023-04-03T07:22:05;4.80;99.90
4647;DHT22;2336;47.822;7.564;2023-04-03T07:24:33;5.00;99.90
4647;DHT22;2336;47.822;7.564;2023-04-03T07:27:00;5.00;99.90
4647;DHT22;2336;47.822;7.564;2023-04-03T07:29:27;5.00;99.90
4647;DHT22;2336;47.822;7.564;2023-04-03T07:31:55;5.00;99.90
4647;DHT22;2336;47.822;7.564;2023-04-03T07:34:23;5.00;99.90
4647;DHT22;2336;47.822;7.564;2023-04-03T07:36:50;5.10;99.90
4647;DHT22;2336;47.822;7.564;2023-04-03T07:39:17;5.10;99.90
4647;DHT22;2336;47.822;7.564;2023-04-03T07:41:44;5.20;99.90
4647;DHT22;2336;47.822;7.564;2023-04-03T07:44:11;5.40;99.90
4647;DHT22;2336;47.822;7.564;2023-04-03T07:46:37;5.40;99.90
4647;DHT22;2336;47.822;7.564;2023-04-03T07:49:04;5.50;99.90
4647;DHT22;2336;47.822;7.564;2023-04-03T07:51:32;5.60;99.90
4647;DHT22;2336;47.822;7.564;2023-04-03T07:54:00;5.70;99.90
4647;DHT22;2336;47.822;7.564;2023-04-03T07:56:26;5.70;99.90
4647;DHT22;2336;47.822;7.564;2023-04-03T07:58:53;5.80;99.90
4647;DHT22;2336;47.822;7.564;2023-04-03T08:01:20;5.80;99.90
4647;DHT22;2336;47.822;7.564;2023-04-03T08:03:47;5.80;99.90
4647;DHT22;2336;47.822;7.564;2023-04-03T08:06:14;6.00;99.90
4647;DHT22;2336;47.822;7.564;2023-04-03T08:08:42;6.00;99.90
4647;DHT22;2336;47.822;7.564;2023-04-03T08:11:09;6.00;99.90
4647;DHT22;2336;47.822;7.564;2023-04-03T08:13:37;6.10;99.90
4647;DHT22;2336;47.822;7.564;2023-04-03T08:16:09;6.20;99.90
4647;DHT22;2336;47.822;7.564;2023-04-03T08:18:35;6.30;99.90
4647;DHT22;2336;47.822;7.564;2023-04-03T08:21:06;6.40;99.90
4647;DHT22;2336;47.822;7.564;2023-04-03T08:23:33;6.40;99.90
4647;DHT22;2336;47.822;7.564;2023-04-03T08:26:07;6.60;99.90
4647;DHT22;2336;47.822;7.564;2023-04-03T08:28:33;6.70;99.90
4647;DHT22;2336;47.822;7.564;2023-04-03T08:31:03;6.80;99.90
4647;DHT22;2336;47.822;7.564;2023-04-03T08:33:31;6.90;99.90
4647;DHT22;2336;47.822;7.564;2023-04-03T08:35:58;7.00;99.90
4647;DHT22;2336;47.822;7.564;2023-04-03T08:38:25;7.00;99.90
4647;DHT22;2336;47.822;7.564;2023-04-03T08:41:00;7.10;99.90
4647;DHT22;2336;47.822;7.564;2023-04-03T08:43:35;7.10;99.90
4647;DHT22;2336;47.822;7.564;2023-04-03T08:46:06;7.10;99.90
4647;DHT22;2336;47.822;7.564;2023-04-03T08:48:39;7.20;99.90
4647;DHT22;2336;47.822;7.564;2023-04-03T08:51:13;7.30;99.90
4647;DHT22;2336;47.822;7.564;2023-04-03T08:53:43;7.30;99.90
4647;DHT22;2336;47.822;7.564;2023-04-03T08:56:11;7.50;99.90
4647;DHT22;2336;47.822;7.564;2023-04-03T08:58:47;7.70;99.90
4647;DHT22;2336;47.822;7.564;2023-04-03T09:01:19;7.60;99.90
4647;DHT22;2336;47.822;7.564;2023-04-03T09:03:47;7.80;99.90
4647;DHT22;2336;47.822;7.564;2023-04-03T09:06:16;7.90;99.90
4647;DHT22;2336;47.822;7.564;2023-04-03T09:08:50;8.00;99.90
4647;DHT22;2336;47.822;7.564;2023-04-03T09:11:22;7.90;99.90
4647;DHT22;2336;47.822;7.564;2023-04-03T09:13:57;8.00;99.90
4647;DHT22;2336;47.822;7.564;2023-04-03T09:16:36;8.20;99.90
4647;DHT22;2336;47.822;7.564;2023-04-03T09:19:15;8.10;99.90
4647;DHT22;2336;47.822;7.564;2023-04-03T09:21:45;8.00;99.90
4647;DHT22;2336;47.822;7.564;2023-04-03T09:24:13;8.10;99.90
4647;DHT22;2336;47.822;7.564;2023-04-03T09:26:43;8.00;99.90
4647;DHT22;2336;47.822;7.564;2023-04-03T09:29:17;8.10;99.90
4647;DHT22;2336;47.822;7.564;2023-04-03T09:31:46;7.90;99.90
4647;DHT22;2336;47.822;7.564;2023-04-03T09:34:18;7.80;99.90
4647;DHT22;2336;47.822;7.564;2023-04-03T09:36:49;7.70;99.90
4647;DHT22;2336;47.822;7.564;2023-04-03T09:39:19;7.80;99.90
4647;DHT22;2336;47.822;7.564;2023-04-03T09:42:00;7.70;99.90
4647;DHT22;2336;47.822;7.564;2023-04-03T09:44:30;7.80;99.90
4647;DHT22;2336;47.822;7.564;2023-04-03T09:46:57;7.80;99.90
4647;DHT22;2336;47.822;7.564;2023-04-03T09:49:25;7.80;99.90
4647;DHT22;2336;47.822;7.564;2023-04-03T09:51:51;7.90;99.90
4647;DHT22;2336;47.822;7.564;2023-04-03T09:54:31;8.00;99.90
4647;DHT22;2336;47.822;7.564;2023-04-03T09:57:02;8.20;99.90
4647;DHT22;2336;47.822;7.564;2023-04-03T09:59:32;8.20;99.90
4647;DHT22;2336;47.822;7.564;2023-04-03T10:02:01;8.00;99.90
4647;DHT22;2336;47.822;7.564;2023-04-03T10:04:39;8.10;99.90
4647;DHT22;2336;47.822;7.564;2023-04-03T10:07:27;8.10;99.90
4647;DHT22;2336;47.822;7.564;2023-04-03T10:09:56;7.90;99.90
4647;DHT22;2336;47.822;7.564;2023-04-03T10:12:23;7.90;99.90
4647;DHT22;2336;47.822;7.564;2023-04-03T10:14:56;7.90;99.90
4647;DHT22;2336;47.822;7.564;2023-04-03T10:17:36;7.70;99.90
4647;DHT22;2336;47.822;7.564;2023-04-03T10:20:16;7.80;99.90
4647;DHT22;2336;47.822;7.564;2023-04-03T10:22:59;7.80;99.90
4647;DHT22;2336;47.822;7.564;2023-04-03T10:25:32;7.80;99.90
4647;DHT22;2336;47.822;7.564;2023-04-03T10:28:04;7.90;99.90
4647;DHT22;2336;47.822;7.564;2023-04-03T10:30:42;7.90;99.90
4647;DHT22;2336;47.822;7.564;2023-04-03T10:33:27;8.00;99.90
4647;DHT22;2336;47.822;7.564;2023-04-03T10:36:06;7.90;99.90
4647;DHT22;2336;47.822;7.564;2023-04-03T10:38:43;7.90;99.90
4647;DHT22;2336;47.822;7.564;2023-04-03T10:41:17;8.00;99.90
4647;DHT22;2336;47.822;7.564;2023-04-03T10:43:56;8.00;99.90
4647;DHT22;2336;47.822;7.564;2023-04-03T10:46:30;8.00;99.90
4647;DHT22;2336;47.822;7.564;2023-04-03T10:49:10;8.20;99.90
4647;DHT22;2336;47.822;7.564;2023-04-03T10:51:42;8.20;99.90
4647;DHT22;2336;47.822;7.564;2023-04-03T10:54:12;8.20;99.20
4647;DHT22;2336;47.822;7.564;2023-04-03T10:56:41;8.30;98.50
4647;DHT22;2336;47.822;7.564;2023-04-03T10:59:18;8.30;99.00
4647;DHT22;2336;47.822;7.564;2023-04-03T11:01:50;8.40;98.70
4647;DHT22;2336;47.822;7.564;2023-04-03T11:04:19;8.10;99.30
4647;DHT22;2336;47.822;7.564;2023-04-03T11:06:49;8.20;98.70
4647;DHT22;2336;47.822;7.564;2023-04-03T11:09:23;8.20;99.10
4647;DHT22;2336;47.822;7.564;2023-04-03T11:11:55;8.20;98.70
4647;DHT22;2336;47.822;7.564;2023-04-03T11:14:26;8.40;99.10
4647;DHT22;2336;47.822;7.564;2023-04-03T11:17:09;8.50;98.10
4647;DHT22;2336;47.822;7.564;2023-04-03T11:19:44;8.70;98.60
4647;DHT22;2336;47.822;7.564;2023-04-03T11:22:23;8.90;98.90
4647;DHT22;2336;47.822;7.564;2023-04-03T11:24:59;8.90;97.50
4647;DHT22;2336;47.822;7.564;2023-04-03T11:27:35;8.80;96.40
4647;DHT22;2336;47.822;7.564;2023-04-03T11:30:09;8.80;97.20
4647;DHT22;2336;47.822;7.564;2023-04-03T11:33:09;8.90;97.90
4647;DHT22;2336;47.822;7.564;2023-04-03T11:35:47;9.10;97.50
4647;DHT22;2336;47.822;7.564;2023-04-03T11:38:21;9.00;97.10
4647;DHT22;2336;47.822;7.564;2023-04-03T11:40:49;8.90;97.10
4647;DHT22;2336;47.822;7.564;2023-04-03T11:43:24;8.70;97.30
4647;DHT22;2336;47.822;7.564;2023-04-03T11:45:58;8.70;96.60
4647;DHT22;2336;47.822;7.564;2023-04-03T11:48:51;8.60;97.40
4647;DHT22;2336;47.822;7.564;2023-04-03T11:51:41;8.70;97.30
4647;DHT22;2336;47.822;7.564;2023-04-03T11:57:44;8.70;97.40
4647;DHT22;2336;47.822;7.564;2023-04-03T12:00:47;9.00;98.10
4647;DHT22;2336;47.822;7.564;2023-04-03T12:06:51;9.10;96.80
4647;DHT22;2336;47.822;7.564;2023-04-03T12:09:25;8.90;96.90
4647;DHT22;2336;47.822;7.564;2023-04-03T12:11:53;8.70;96.40
4647;DHT22;2336;47.822;7.564;2023-04-03T12:14:23;8.50;96.30
4647;DHT22;2336;47.822;7.564;2023-04-03T12:16:52;8.40;97.30
4647;DHT22;2336;47.822;7.564;2023-04-03T12:19:34;8.40;96.50
4647;DHT22;2336;47.822;7.564;2023-04-03T12:22:15;8.30;95.80
4647;DHT22;2336;47.822;7.564;2023-04-03T12:24:44;8.50;96.50
4647;DHT22;2336;47.822;7.564;2023-04-03T12:27:38;8.50;96.30
4647;DHT22;2336;47.822;7.564;2023-04-03T12:30:14;8.60;96.80
4647;DHT22;2336;47.822;7.564;2023-04-03T12:33:02;8.70;96.80
4647;DHT22;2336;47.822;7.564;2023-04-03T12:35:35;8.70;96.80
4647;DHT22;2336;47.822;7.564;2023-04-03T12:41:25;8.60;96.40
4647;DHT22;2336;47.822;7.564;2023-04-03T12:44:01;9.00;96.10
4647;DHT22;2336;47.822;7.564;2023-04-03T12:46:38;9.20;95.60
4647;DHT22;2336;47.822;7.564;2023-04-03T12:49:31;9.00;95.60
4647;DHT22;2336;47.822;7.564;2023-04-03T12:52:00;9.00;96.00
4647;DHT22;2336;47.822;7.564;2023-04-03T12:54:31;9.10;97.70
4647;DHT22;2336;47.822;7.564;2023-04-03T12:57:16;9.20;95.50
4647;DHT22;2336;47.822;7.564;2023-04-03T12:59:44;9.10;95.60
4647;DHT22;2336;47.822;7.564;2023-04-03T13:02:21;9.10;95.20
4647;DHT22;2336;47.822;7.564;2023-04-03T13:04:50;9.30;95.40
4647;DHT22;2336;47.822;7.564;2023-04-03T13:07:22;9.40;95.20
4647;DHT22;2336;47.822;7.564;2023-04-03T13:10:03;9.30;96.30
4647;DHT22;2336;47.822;7.564;2023-04-03T13:12:32;9.30;95.70
4647;DHT22;2336;47.822;7.564;2023-04-03T13:15:00;9.40;95.50
4647;DHT22;2336;47.822;7.564;2023-04-03T13:17:29;9.50;95.10
4647;DHT22;2336;47.822;7.564;2023-04-03T13:20:10;9.50;94.80
4647;DHT22;2336;47.822;7.564;2023-04-03T13:22:39;9.40;95.10
4647;DHT22;2336;47.822;7.564;2023-04-03T13:25:12;9.30;94.70
4647;DHT22;2336;47.822;7.564;2023-04-03T13:27:41;9.20;95.30
4647;DHT22;2336;47.822;7.564;2023-04-03T13:30:23;9.20;95.60
4647;DHT22;2336;47.822;7.564;2023-04-03T13:32:50;9.20;95.30
4647;DHT22;2336;47.822;7.564;2023-04-03T13:35:32;9.10;95.10
4647;DHT22;2336;47.822;7.564;2023-04-03T13:38:05;9.10;94.30
4647;DHT22;2336;47.822;7.564;2023-04-03T13:40:32;9.20;94.90
4647;DHT22;2336;47.822;7.564;2023-04-03T13:43:04;9.20;94.50
4647;DHT22;2336;47.822;7.564;2023-04-03T13:45:33;9.20;94.40
4647;DHT22;2336;47.822;7.564;2023-04-03T13:48:16;9.30;94.60
4647;DHT22;2336;47.822;7.564;2023-04-03T13:50:53;9.60;94.30
4647;DHT22;2336;47.822;7.564;2023-04-03T13:53:20;9.30;93.30
4647;DHT22;2336;47.822;7.564;2023-04-03T13:56:00;9.50;94.80
4647;DHT22;2336;47.822;7.564;2023-04-03T13:58:33;9.60;94.20
4647;DHT22;2336;47.822;7.564;2023-04-03T14:01:10;9.30;94.00
4647;DHT22;2336;47.822;7.564;2023-04-03T14:03:43;9.30;94.50
4647;DHT22;2336;47.822;7.564;2023-04-03T14:06:11;9.10;94.20
4647;DHT22;2336;47.822;7.564;2023-04-03T14:08:39;9.10;93.90
4647;DHT22;2336;47.822;7.564;2023-04-03T14:11:11;9.20;93.80
4647;DHT22;2336;47.822;7.564;2023-04-03T14:13:41;9.30;94.70
4647;DHT22;2336;47.822;7.564;2023-04-03T14:16:13;9.20;93.80
4647;DHT22;2336;47.822;7.564;2023-04-03T14:18:42;9.10;94.40
4647;DHT22;2336;47.822;7.564;2023-04-03T14:21:11;9.00;94.10
4647;DHT22;2336;47.822;7.564;2023-04-03T14:23:38;9.00;94.50
4647;DHT22;2336;47.822;7.564;2023-04-03T14:26:10;9.00;94.50
4647;DHT22;2336;47.822;7.564;2023-04-03T14:28:38;8.90;93.80
4647;DHT22;2336;47.822;7.564;2023-04-03T14:31:07;9.00;95.20
4647;DHT22;2336;47.822;7.564;2023-04-03T14:33:33;9.00;94.40
4647;DHT22;2336;47.822;7.564;2023-04-03T14:36:05;9.00;93.60
4647;DHT22;2336;47.822;7.564;2023-04-03T14:38:32;8.90;93.20
4647;DHT22;2336;47.822;7.564;2023-04-03T14:40:59;8.90;92.60
4647;DHT22;2336;47.822;7.564;2023-04-03T14:43:25;8.90;93.50
4647;DHT22;2336;47.822;7.564;2023-04-03T14:45:53;9.00;94.10
4647;DHT22;2336;47.822;7.564;2023-04-03T14:48:23;9.00;93.10
4647;DHT22;2336;47.822;7.564;2023-04-03T14:50:51;8.90;92.40
4647;DHT22;2336;47.822;7.564;2023-04-03T14:53:19;8.90;93.30
4647;DHT22;2336;47.822;7.564;2023-04-03T14:55:49;8.80;93.30
4647;DHT22;2336;47.822;7.564;2023-04-03T14:58:19;8.70;93.80
4647;DHT22;2336;47.822;7.564;2023-04-03T15:00:46;8.80;93.60
4647;DHT22;2336;47.822;7.564;2023-04-03T15:03:14;8.80;93.40
4647;DHT22;2336;47.822;7.564;2023-04-03T15:05:44;8.80;93.40
4647;DHT22;2336;47.822;7.564;2023-04-03T15:08:20;8.70;94.20
4647;DHT22;2336;47.822;7.564;2023-04-03T15:10:47;8.60;94.20
4647;DHT22;2336;47.822;7.564;2023-04-03T15:13:14;8.50;93.90
4647;DHT22;2336;47.822;7.564;2023-04-03T15:15:43;8.50;94.80
4647;DHT22;2336;47.822;7.564;2023-04-03T15:18:15;8.60;95.20
4647;DHT22;2336;47.822;7.564;2023-04-03T15:20:44;8.60;96.00
4647;DHT22;2336;47.822;7.564;2023-04-03T15:23:12;8.40;94.70
4647;DHT22;2336;47.822;7.564;2023-04-03T15:25:41;8.40;95.40
4647;DHT22;2336;47.822;7.564;2023-04-03T15:28:09;8.40;95.10
4647;DHT22;2336;47.822;7.564;2023-04-03T15:30:39;8.40;95.90
4647;DHT22;2336;47.822;7.564;2023-04-03T15:33:06;8.40;95.80
4647;DHT22;2336;47.822;7.564;2023-04-03T15:35:33;8.40;95.40
4647;DHT22;2336;47.822;7.564;2023-04-03T15:38:01;8.20;95.20
4647;DHT22;2336;47.822;7.564;2023-04-03T15:40:28;8.20;95.20
4647;DHT22;2336;47.822;7.564;2023-04-03T15:42:54;8.20;95.00
4647;DHT22;2336;47.822;7.564;2023-04-03T15:45:21;8.20;94.60
4647;DHT22;2336;47.822;7.564;2023-04-03T15:47:48;8.10;94.70
4647;DHT22;2336;47.822;7.564;2023-04-03T15:50:15;8.10;94.90
4647;DHT22;2336;47.822;7.564;2023-04-03T15:52:43;8.10;95.10
4647;DHT22;2336;47.822;7.564;2023-04-03T15:55:11;8.00;95.00
4647;DHT22;2336;47.822;7.564;2023-04-03T15:57:37;8.00;95.10
4647;DHT22;2336;47.822;7.564;2023-04-03T16:00:05;8.00;95.60
4647;DHT22;2336;47.822;7.564;2023-04-03T16:02:32;8.00;95.70
4647;DHT22;2336;47.822;7.564;2023-04-03T16:05:00;8.00;95.40
4647;DHT22;2336;47.822;7.564;2023-04-03T16:07:26;7.90;95.00
4647;DHT22;2336;47.822;7.564;2023-04-03T16:09:53;8.00;95.50
4647;DHT22;2336;47.822;7.564;2023-04-03T16:12:21;8.00;95.80
4647;DHT22;2336;47.822;7.564;2023-04-03T16:14:48;8.00;95.90
4647;DHT22;2336;47.822;7.564;2023-04-03T16:17:15;8.00;95.20
4647;DHT22;2336;47.822;7.564;2023-04-03T16:19:42;8.00;95.00
4647;DHT22;2336;47.822;7.564;2023-04-03T16:22:08;8.00;94.60
4647;DHT22;2336;47.822;7.564;2023-04-03T16:24:35;7.90;94.30
4647;DHT22;2336;47.822;7.564;2023-04-03T16:27:03;7.90;94.20
4647;DHT22;2336;47.822;7.564;2023-04-03T16:29:31;7.90;93.80
4647;DHT22;2336;47.822;7.564;2023-04-03T16:31:58;8.00;93.70
4647;DHT22;2336;47.822;7.564;2023-04-03T16:34:26;8.00;94.70
4647;DHT22;2336;47.822;7.564;2023-04-03T16:36:55;8.00;94.90
4647;DHT22;2336;47.822;7.564;2023-04-03T16:39:22;7.90;95.10
4647;DHT22;2336;47.822;7.564;2023-04-03T16:41:49;7.80;94.70
4647;DHT22;2336;47.822;7.564;2023-04-03T16:44:15;7.80;94.30
4647;DHT22;2336;47.822;7.564;2023-04-03T16:46:44;7.80;95.20